Cascade, Washington
Current Conditions -  °F | °C
As of 3:53 PM on Sunday 23 Nov 2014 (Local Time) from KRNT Reporting Station
Clear Clear  
Wind Chill: 52°   Ceiling: Unl
Heat Index: 52°   Visibility: 10mi
Dew Point: 43°   Wind: 6mph
Humidity: 71%   Direction: 170°S
Pressure: 30.18"   Gusts: NA
Location:  47.4414°N, 122.121°W
Report Text: KRNT 232353Z 17005KT 10SM CLR 11/06 A3018 RMK AO2 SLP225 60000 T01110061 10128 20100 51019
Loading
Personal Weather Stations






























Interactive Weather Map New forecast layout! Learn more

10-Day Weather Forecast

Advertisements
Track Severe Weather on mobile